createdAt,value
2017-02-11T00:00:00.950Z,925.1
2017-02-11T00:01:15.319Z,925.11
2017-02-11T00:02:29.735Z,925.13
2017-02-11T00:03:44.104Z,925.2
2017-02-11T00:04:58.473Z,925.2
2017-02-11T00:06:12.217Z,925.24
2017-02-11T00:07:25.922Z,925.21
2017-02-11T00:08:40.294Z,925.18
2017-02-11T00:09:54.679Z,925.19
2017-02-11T00:11:09.005Z,925.18
2017-02-11T00:12:22.739Z,925.15
2017-02-11T00:13:37.054Z,925.15
2017-02-11T00:14:51.451Z,925.15
2017-02-11T00:16:05.863Z,925.17
2017-02-11T00:17:20.288Z,925.17
2017-02-11T00:18:34.635Z,925.18
2017-02-11T00:19:48.997Z,925.16
2017-02-11T00:21:02.687Z,925.22
2017-02-11T00:22:17.051Z,925.16
2017-02-11T00:23:31.432Z,925.05
2017-02-11T00:24:45.758Z,925.12
2017-02-11T00:26:00.107Z,925.17
2017-02-11T00:27:14.484Z,925.16
2017-02-11T00:28:28.879Z,925.28
2017-02-11T00:29:43.267Z,925.32
2017-02-11T00:30:56.979Z,925.32
2017-02-11T00:32:11.391Z,925.28
2017-02-11T00:33:25.806Z,925.15
2017-02-11T00:34:40.145Z,925.29
2017-02-11T00:35:53.926Z,925.28
2017-02-11T00:37:08.277Z,925.24
2017-02-11T00:38:22.615Z,925.28
2017-02-11T00:39:36.969Z,925.34
2017-02-11T00:40:50.679Z,925.35
2017-02-11T00:42:05.054Z,925.38
2017-02-11T00:43:19.427Z,925.37
2017-02-11T00:44:33.137Z,925.4
2017-02-11T00:45:47.026Z,925.43
2017-02-11T00:47:01.371Z,925.39
2017-02-11T00:48:15.079Z,925.36
2017-02-11T00:49:29.460Z,925.33
2017-02-11T00:50:43.179Z,925.36
2017-02-11T00:51:57.565Z,925.37
2017-02-11T00:53:11.288Z,925.35
2017-02-11T00:54:25.651Z,925.37
2017-02-11T00:55:40.031Z,925.38
2017-02-11T00:56:54.391Z,925.35
2017-02-11T00:58:08.754Z,925.31
2017-02-11T00:59:23.126Z,925.32
2017-02-11T01:00:37.449Z,925.33
2017-02-11T01:01:51.848Z,925.43
2017-02-11T01:03:05.586Z,925.46
2017-02-11T01:04:19.933Z,925.39
2017-02-11T01:05:34.300Z,925.37
2017-02-11T01:06:48.719Z,925.34
2017-02-11T01:08:03.045Z,925.36
2017-02-11T01:09:16.783Z,925.38
2017-02-11T01:10:31.127Z,925.4
2017-02-11T01:11:45.492Z,925.42
2017-02-11T01:12:59.223Z,925.4
2017-02-11T01:14:12.955Z,925.43
2017-02-11T01:15:27.337Z,925.45
2017-02-11T01:16:41.784Z,925.35
2017-02-11T01:17:56.146Z,925.43
2017-02-11T01:19:09.225Z,925.48
2017-02-11T01:20:23.597Z,925.44
2017-02-11T01:21:37.998Z,925.42
2017-02-11T01:22:52.338Z,925.48
2017-02-11T01:24:06.723Z,925.5
2017-02-11T01:25:19.850Z,925.53
2017-02-11T01:26:34.207Z,925.53
2017-02-11T01:27:48.563Z,925.55
2017-02-11T01:29:02.923Z,925.53
2017-02-11T01:30:16.712Z,925.58
2017-02-11T01:31:31.070Z,925.56
2017-02-11T01:32:45.433Z,925.58
2017-02-11T01:33:59.818Z,925.6
2017-02-11T01:35:14.193Z,925.62
2017-02-11T01:36:27.907Z,925.65
2017-02-11T01:37:42.275Z,925.62
2017-02-11T01:38:56.631Z,925.61
2017-02-11T01:40:10.358Z,925.58
2017-02-11T01:41:24.759Z,925.62
2017-02-11T01:42:39.109Z,925.59
2017-02-11T01:43:53.448Z,925.55
2017-02-11T01:45:07.160Z,925.64
2017-02-11T01:46:20.259Z,925.62
2017-02-11T01:47:35.448Z,925.71
2017-02-11T01:48:49.873Z,925.72
2017-02-11T01:50:03.651Z,925.69
2017-02-11T01:51:17.335Z,925.69
2017-02-11T01:52:31.673Z,925.71
2017-02-11T01:53:46.005Z,925.69
2017-02-11T01:55:00.348Z,925.63
2017-02-11T01:56:14.079Z,925.66
2017-02-11T01:57:28.463Z,925.68
2017-02-11T01:58:42.199Z,925.69
2017-02-11T01:59:56.553Z,925.7
2017-02-11T02:01:09.640Z,925.72
2017-02-11T02:02:23.997Z,925.64
2017-02-11T02:03:38.348Z,925.73
2017-02-11T02:04:52.733Z,925.66
2017-02-11T02:06:06.421Z,925.65
2017-02-11T02:07:20.808Z,925.67
2017-02-11T02:08:35.247Z,925.63
2017-02-11T02:09:49.598Z,925.59
2017-02-11T02:11:03.327Z,925.61
2017-02-11T02:13:05.146Z,925.55
2017-02-11T02:14:18.829Z,925.61
2017-02-11T02:15:33.201Z,925.55
2017-02-11T02:16:47.563Z,925.6
2017-02-11T02:18:01.576Z,925.55
2017-02-11T02:19:15.281Z,925.59
2017-02-11T02:20:59.949Z,925.55
2017-02-11T02:22:13.626Z,925.54
2017-02-11T02:23:27.995Z,925.54
2017-02-11T02:24:42.378Z,925.53
2017-02-11T02:25:55.434Z,925.57
2017-02-11T02:27:09.820Z,925.54
2017-02-11T02:28:23.543Z,925.52
2017-02-11T02:29:37.943Z,925.5
2017-02-11T02:30:52.319Z,925.47
2017-02-11T02:32:06.683Z,925.47
2017-02-11T02:33:21.035Z,925.45
2017-02-11T02:34:35.407Z,925.41
2017-02-11T02:35:49.795Z,925.39
2017-02-11T02:37:04.124Z,925.39
2017-02-11T02:38:17.887Z,925.39
2017-02-11T02:39:32.282Z,925.36
2017-02-11T02:40:46.639Z,925.36
2017-02-11T02:42:00.364Z,925.34
2017-02-11T02:43:13.442Z,925.33
2017-02-11T02:44:27.847Z,925.33
2017-02-11T02:45:42.225Z,925.34
2017-02-11T02:46:56.619Z,925.3
2017-02-11T02:48:10.331Z,925.33
2017-02-11T02:49:24.074Z,925.29
2017-02-11T02:50:38.462Z,925.32
2017-02-11T02:51:52.866Z,925.27
2017-02-11T02:53:07.253Z,925.24
2017-02-11T02:54:21.623Z,925.28
2017-02-11T02:55:35.954Z,925.26
2017-02-11T02:56:50.318Z,925.25
2017-02-11T02:58:04.041Z,925.24
2017-02-11T02:59:17.735Z,925.25
2017-02-11T03:00:32.126Z,925.26
2017-02-11T03:01:46.462Z,925.27
2017-02-11T03:03:00.838Z,925.25
2017-02-11T03:04:14.549Z,925.24
2017-02-11T03:05:28.926Z,925.22
2017-02-11T03:06:43.296Z,925.18
2017-02-11T03:07:57.656Z,925.14
2017-02-11T03:09:12.019Z,925.12
2017-02-11T03:10:26.395Z,925.16
2017-02-11T03:11:40.774Z,925.19
2017-02-11T03:12:55.143Z,925.13
2017-02-11T03:14:09.551Z,925.11
2017-02-11T03:15:23.910Z,925.1
2017-02-11T03:16:38.281Z,925.11
2017-02-11T03:17:52.649Z,925.04
2017-02-11T03:19:06.378Z,925.08
2017-02-11T03:20:20.706Z,925.05
2017-02-11T03:21:34.481Z,925.11
2017-02-11T03:22:48.827Z,925.08
2017-02-11T03:24:03.185Z,925.14
2017-02-11T03:25:16.904Z,925.13
2017-02-11T03:26:31.259Z,925.05
2017-02-11T03:27:45.643Z,925.08
2017-02-11T03:28:59.989Z,925.05
2017-02-11T03:30:14.313Z,925.08
2017-02-11T03:31:28.669Z,925.05
2017-02-11T03:32:43.070Z,925.05
2017-02-11T03:33:57.453Z,925
2017-02-11T03:35:11.805Z,924.95
2017-02-11T03:36:26.179Z,924.94
2017-02-11T03:37:40.555Z,924.89
2017-02-11T03:38:54.319Z,924.86
2017-02-11T03:40:08.673Z,924.86
2017-02-11T03:41:22.364Z,924.88
2017-02-11T03:42:36.770Z,924.87
2017-02-11T03:43:51.142Z,924.86
2017-02-11T03:45:05.504Z,924.87
2017-02-11T03:46:19.879Z,924.85
2017-02-11T03:47:34.266Z,924.82
2017-02-11T03:48:48.672Z,924.85
2017-02-11T03:50:03.042Z,924.83
2017-02-11T03:51:16.769Z,924.81
2017-02-11T03:52:31.138Z,924.81
2017-02-11T03:53:45.523Z,924.81
2017-02-11T03:54:59.900Z,924.81
2017-02-11T03:56:14.277Z,924.77
2017-02-11T03:57:28.684Z,924.73
2017-02-11T03:58:43.035Z,924.75
2017-02-11T03:59:57.714Z,924.76
2017-02-11T04:01:18.765Z,924.68
2017-02-11T04:02:33.127Z,924.64
2017-02-11T04:03:47.511Z,924.65
2017-02-11T04:05:01.897Z,924.58
2017-02-11T04:06:16.282Z,924.54
2017-02-11T04:07:30.679Z,924.57
2017-02-11T04:08:45.242Z,924.53
2017-02-11T04:09:59.607Z,924.52
2017-02-11T04:11:13.970Z,924.49
2017-02-11T04:12:27.704Z,924.47
2017-02-11T04:13:42.141Z,924.45
2017-02-11T04:14:56.515Z,924.41
2017-02-11T04:16:10.910Z,924.41
2017-02-11T04:17:25.311Z,924.37
2017-02-11T04:18:39.684Z,924.34
2017-02-11T04:19:54.088Z,924.27
2017-02-11T04:21:07.814Z,924.29
2017-02-11T04:22:22.202Z,924.29
2017-02-11T04:23:36.601Z,924.28
2017-02-11T04:24:50.940Z,924.25
2017-02-11T04:26:05.331Z,924.28
2017-02-11T04:27:19.105Z,924.18
2017-02-11T04:28:33.480Z,924.2
2017-02-11T04:29:47.839Z,924.1
2017-02-11T04:31:28.411Z,924.08
2017-02-11T04:32:42.752Z,923.97
2017-02-11T04:33:57.092Z,923.98
2017-02-11T04:35:11.513Z,923.91
2017-02-11T04:36:25.875Z,923.95
2017-02-11T04:37:40.270Z,923.9
2017-02-11T04:38:54.621Z,923.91
2017-02-11T04:40:08.979Z,923.88
2017-02-11T04:41:22.691Z,923.86
2017-02-11T04:42:37.058Z,923.88
2017-02-11T04:43:51.450Z,923.88
2017-02-11T04:45:05.810Z,923.83
2017-02-11T04:46:20.177Z,923.85
2017-02-11T04:47:34.567Z,923.84
2017-02-11T04:48:48.916Z,923.82
2017-02-11T04:50:03.248Z,923.82
2017-02-11T04:51:16.970Z,923.79
2017-02-11T04:52:31.331Z,923.76
2017-02-11T04:53:45.685Z,923.77
2017-02-11T04:55:00.056Z,923.74
2017-02-11T04:56:13.767Z,923.71
2017-02-11T04:57:28.165Z,923.71
2017-02-11T04:58:42.512Z,923.68
2017-02-11T04:59:56.893Z,923.67
2017-02-11T05:01:11.264Z,923.67
2017-02-11T05:02:25.661Z,923.64
2017-02-11T05:03:39.397Z,923.66
2017-02-11T05:04:53.773Z,923.62
2017-02-11T05:06:08.139Z,923.64
2017-02-11T05:07:21.893Z,923.64
2017-02-11T05:08:36.296Z,923.62
2017-02-11T05:09:50.662Z,923.63
2017-02-11T05:11:05.030Z,923.6
2017-02-11T05:12:18.735Z,923.61
2017-02-11T05:13:33.042Z,923.6
2017-02-11T05:14:47.410Z,923.62
2017-02-11T05:16:01.753Z,923.64
2017-02-11T05:17:16.097Z,923.62
2017-02-11T05:18:30.434Z,923.63
2017-02-11T05:19:44.847Z,923.58
2017-02-11T05:20:59.236Z,923.54
2017-02-11T05:22:13.607Z,923.56
2017-02-11T05:23:28.007Z,923.56
2017-02-11T05:24:42.320Z,923.55
2017-02-11T05:25:56.079Z,923.58
2017-02-11T05:27:12.286Z,923.55
2017-02-11T05:28:25.982Z,923.6
2017-02-11T05:29:40.369Z,923.57
2017-02-11T05:30:54.704Z,923.57
2017-02-11T05:32:09.094Z,923.57
2017-02-11T05:33:22.843Z,923.47
2017-02-11T05:34:37.253Z,923.55
2017-02-11T05:35:51.605Z,923.57
2017-02-11T05:37:05.975Z,923.6
2017-02-11T05:38:20.320Z,923.55
2017-02-11T05:39:34.674Z,923.54
2017-02-11T05:40:49.015Z,923.55
2017-02-11T05:42:03.380Z,923.57
2017-02-11T05:43:17.097Z,923.56
2017-02-11T05:44:31.504Z,923.57
2017-02-11T05:45:45.885Z,923.57
2017-02-11T05:47:00.254Z,923.59
2017-02-11T05:48:14.601Z,923.57
2017-02-11T05:49:28.936Z,923.55
2017-02-11T05:50:43.291Z,923.59
2017-02-11T05:51:57.653Z,923.49
2017-02-11T05:53:12.004Z,923.59
2017-02-11T05:54:26.353Z,923.6
2017-02-11T05:55:40.734Z,923.54
2017-02-11T05:56:55.073Z,923.62
2017-02-11T05:58:09.455Z,923.59
2017-02-11T05:59:23.148Z,923.64
2017-02-11T06:00:37.517Z,923.63
2017-02-11T06:01:51.883Z,923.63
2017-02-11T06:03:05.607Z,923.53
2017-02-11T06:04:19.358Z,923.53
2017-02-11T06:05:33.750Z,923.55
2017-02-11T06:06:48.123Z,923.52
2017-02-11T06:08:02.491Z,923.49
2017-02-11T06:09:16.258Z,923.52
2017-02-11T06:10:30.654Z,923.48
2017-02-11T06:11:45.000Z,923.47
2017-02-11T06:12:59.360Z,923.47
2017-02-11T06:14:13.697Z,923.47
2017-02-11T06:15:28.044Z,923.47
2017-02-11T06:16:42.399Z,923.5
2017-02-11T06:17:56.732Z,923.54
2017-02-11T06:19:11.102Z,923.53
2017-02-11T06:20:25.464Z,923.56
2017-02-11T06:21:39.809Z,923.52
2017-02-11T06:22:54.161Z,923.43
2017-02-11T06:24:07.877Z,923.49
2017-02-11T06:25:21.632Z,923.52
2017-02-11T06:26:36.049Z,923.57
2017-02-11T06:27:50.448Z,923.55
2017-02-11T06:29:04.830Z,923.48
2017-02-11T06:30:19.188Z,923.54
2017-02-11T06:31:33.539Z,923.57
2017-02-11T06:32:47.899Z,923.58
2017-02-11T06:34:02.274Z,923.64
2017-02-11T06:35:15.996Z,923.6
2017-02-11T06:36:30.399Z,923.63
2017-02-11T06:37:44.739Z,923.64
2017-02-11T06:38:59.082Z,923.67
2017-02-11T06:40:12.789Z,923.71
2017-02-11T06:41:27.157Z,923.67
2017-02-11T06:42:41.549Z,923.67
2017-02-11T06:43:55.910Z,923.66
2017-02-11T06:45:10.283Z,923.6
2017-02-11T06:46:24.023Z,923.64
2017-02-11T06:47:38.374Z,923.59
2017-02-11T06:48:52.731Z,923.55
2017-02-11T06:50:07.119Z,923.57
2017-02-11T06:51:21.483Z,923.56
2017-02-11T06:52:35.836Z,923.54
2017-02-11T06:53:50.194Z,923.5
2017-02-11T06:55:04.533Z,923.49
2017-02-11T06:56:18.216Z,923.54
2017-02-11T06:57:32.547Z,923.44
2017-02-11T06:58:46.906Z,923.48
2017-02-11T07:00:01.312Z,923.46
2017-02-11T07:01:15.703Z,923.5
2017-02-11T07:02:30.031Z,923.43
2017-02-11T07:03:44.398Z,923.46
2017-02-11T07:04:58.801Z,923.5
2017-02-11T07:06:13.200Z,923.5
2017-02-11T07:07:27.552Z,923.48
2017-02-11T07:08:41.942Z,923.46
2017-02-11T07:09:56.345Z,923.44
2017-02-11T07:11:10.721Z,923.45
2017-02-11T07:12:24.471Z,923.34
2017-02-11T07:13:38.885Z,923.41
2017-02-11T07:14:53.270Z,923.37
2017-02-11T07:16:06.988Z,923.4
2017-02-11T07:17:20.710Z,923.41
2017-02-11T07:18:33.795Z,923.45
2017-02-11T07:19:48.210Z,923.46
2017-02-11T07:21:02.581Z,923.5
2017-02-11T07:22:16.944Z,923.49
2017-02-11T07:23:31.305Z,923.55
2017-02-11T07:24:45.680Z,923.56
2017-02-11T07:26:00.055Z,923.58
2017-02-11T07:27:13.794Z,923.55
2017-02-11T07:28:27.515Z,923.57
2017-02-11T07:29:41.885Z,923.54
2017-02-11T07:30:56.250Z,923.6
2017-02-11T07:32:10.607Z,923.6
2017-02-11T07:33:24.965Z,923.6
2017-02-11T07:34:39.359Z,923.6
2017-02-11T07:35:53.733Z,923.61
2017-02-11T07:37:08.089Z,923.6
2017-02-11T07:38:22.425Z,923.65
2017-02-11T07:39:36.818Z,923.6
2017-02-11T07:40:51.164Z,923.6
2017-02-11T07:42:05.504Z,923.67
2017-02-11T07:43:19.872Z,923.62
2017-02-11T07:44:34.232Z,923.65
2017-02-11T07:45:48.572Z,923.6
2017-02-11T07:47:02.929Z,923.64
2017-02-11T07:48:17.318Z,923.61
2017-02-11T07:49:31.671Z,923.54
2017-02-11T07:50:46.073Z,923.66
2017-02-11T07:51:59.845Z,923.69
2017-02-11T07:53:13.556Z,923.66
2017-02-11T07:54:27.917Z,923.61
2017-02-11T07:55:42.260Z,923.63
2017-02-11T07:56:56.007Z,923.55
2017-02-11T07:58:10.414Z,923.61
2017-02-11T07:59:24.116Z,923.49
2017-02-11T08:00:38.528Z,923.53
2017-02-11T08:01:52.918Z,923.57
2017-02-11T08:03:07.297Z,923.54
2017-02-11T08:04:21.637Z,923.65
2017-02-11T08:05:36.064Z,923.61
2017-02-11T08:06:50.410Z,923.56
2017-02-11T08:08:04.773Z,923.55
2017-02-11T08:09:17.820Z,923.62
2017-02-11T08:10:32.168Z,923.62
2017-02-11T08:11:46.510Z,923.61
2017-02-11T08:13:00.912Z,923.6
2017-02-11T08:14:14.644Z,923.64
2017-02-11T08:15:28.371Z,923.69
2017-02-11T08:16:42.721Z,923.7
2017-02-11T08:17:57.127Z,923.73
2017-02-11T08:19:10.888Z,923.67
2017-02-11T08:20:25.262Z,923.72
2017-02-11T08:21:39.614Z,923.77
2017-02-11T08:22:53.980Z,923.72
2017-02-11T08:24:08.436Z,923.78
2017-02-11T08:25:22.170Z,923.7
2017-02-11T08:26:36.537Z,923.69
2017-02-11T08:27:50.895Z,923.71
2017-02-11T08:29:05.262Z,923.73
2017-02-11T08:30:19.609Z,923.7
2017-02-11T08:31:33.969Z,923.72
2017-02-11T08:32:48.341Z,923.72
2017-02-11T08:34:02.751Z,923.72
2017-02-11T08:35:17.121Z,923.77
2017-02-11T08:36:31.510Z,923.71
2017-02-11T08:37:45.878Z,923.78
2017-02-11T08:39:00.259Z,923.81
2017-02-11T08:40:13.982Z,923.82
2017-02-11T08:41:28.329Z,923.77
2017-02-11T08:42:42.688Z,923.81
2017-02-11T08:43:57.043Z,923.83
2017-02-11T08:45:11.395Z,923.87
2017-02-11T08:46:25.833Z,923.87
2017-02-11T08:47:40.212Z,923.89
2017-02-11T08:48:54.591Z,923.87
2017-02-11T08:50:08.969Z,923.95
2017-02-11T08:51:23.366Z,923.94
2017-02-11T08:52:37.095Z,923.97
2017-02-11T08:53:50.807Z,923.89
2017-02-11T08:55:05.158Z,923.92
2017-02-11T08:56:19.538Z,923.97
2017-02-11T08:57:33.922Z,923.9
2017-02-11T08:58:48.317Z,923.96
2017-02-11T09:00:02.705Z,924.03
2017-02-11T09:01:17.079Z,924.03
2017-02-11T09:02:31.420Z,924.06
2017-02-11T09:03:45.776Z,924.04
2017-02-11T09:05:00.175Z,924.03
2017-02-11T09:06:14.527Z,924.02
2017-02-11T09:07:28.890Z,924
2017-02-11T09:08:43.232Z,924.02
2017-02-11T09:09:57.609Z,924.04
2017-02-11T09:11:11.969Z,924.06
2017-02-11T09:12:26.358Z,924.1
2017-02-11T09:13:40.680Z,924.11
2017-02-11T09:14:55.043Z,924
2017-02-11T09:16:08.763Z,924.05
2017-02-11T09:17:23.129Z,924.13
2017-02-11T09:18:37.507Z,924.08
2017-02-11T09:19:51.903Z,924.12
2017-02-11T09:21:06.266Z,924.12
2017-02-11T09:22:20.664Z,924.11
2017-02-11T09:23:35.031Z,924.21
2017-02-11T09:24:49.442Z,924.2
2017-02-11T09:26:03.827Z,924.31
2017-02-11T09:27:18.191Z,924.25
2017-02-11T09:28:32.586Z,924.25
2017-02-11T09:29:46.925Z,924.3
2017-02-11T09:31:01.281Z,924.33
2017-02-11T09:32:15.671Z,924.33
2017-02-11T09:33:30.015Z,924.4
2017-02-11T09:34:44.424Z,924.39
2017-02-11T09:35:58.184Z,924.36
2017-02-11T09:37:11.227Z,924.35
2017-02-11T09:38:24.944Z,924.41
2017-02-11T09:39:39.311Z,924.45
2017-02-11T09:40:53.669Z,924.42
2017-02-11T09:42:08.045Z,924.42
2017-02-11T09:43:21.771Z,924.39
2017-02-11T09:44:36.165Z,924.47
2017-02-11T09:45:50.547Z,924.43
2017-02-11T09:47:04.944Z,924.47
2017-02-11T09:48:19.311Z,924.47
2017-02-11T09:49:33.676Z,924.47
2017-02-11T09:50:48.082Z,924.52
2017-02-11T09:52:02.432Z,924.5
2017-02-11T09:53:16.133Z,924.51
2017-02-11T09:54:29.845Z,924.51
2017-02-11T09:55:44.234Z,924.54
2017-02-11T09:56:57.963Z,924.56
2017-02-11T09:58:12.368Z,924.6
2017-02-11T09:59:26.716Z,924.58
2017-02-11T10:00:58.965Z,924.64
2017-02-11T10:02:13.352Z,924.64
2017-02-11T10:03:27.727Z,924.61
2017-02-11T10:04:42.088Z,924.65
2017-02-11T10:05:56.477Z,924.67
2017-02-11T10:07:10.203Z,924.68
2017-02-11T10:08:24.562Z,924.71
2017-02-11T10:09:38.914Z,924.75
2017-02-11T10:10:53.317Z,924.83
2017-02-11T10:12:07.093Z,924.76
2017-02-11T10:13:21.489Z,924.74
2017-02-11T10:14:35.208Z,924.76
2017-02-11T10:15:49.582Z,924.74
2017-02-11T10:17:03.960Z,924.71
2017-02-11T10:18:18.323Z,924.76
2017-02-11T10:19:32.686Z,924.71
2017-02-11T10:20:47.032Z,924.8
2017-02-11T10:22:00.737Z,924.82
2017-02-11T10:23:13.821Z,924.82
2017-02-11T10:24:27.545Z,924.82
2017-02-11T10:25:41.254Z,924.85
2017-02-11T10:26:55.860Z,924.84
2017-02-11T10:28:10.359Z,924.88
2017-02-11T10:29:24.752Z,924.93
2017-02-11T10:30:39.128Z,924.97
2017-02-11T10:31:52.830Z,924.94
2017-02-11T10:33:07.218Z,925.02
2017-02-11T10:34:21.589Z,925
2017-02-11T10:35:35.339Z,925
2017-02-11T10:36:49.723Z,925.04
2017-02-11T10:38:03.441Z,924.99
2017-02-11T10:39:17.811Z,925
2017-02-11T10:40:32.221Z,924.99
2017-02-11T10:41:46.604Z,925.01
2017-02-11T10:43:00.367Z,925.03
2017-02-11T10:44:14.008Z,925.02
2017-02-11T10:45:26.505Z,925.05
2017-02-11T10:46:40.233Z,925.07
2017-02-11T10:47:53.979Z,925.06
2017-02-11T10:49:07.655Z,925.09
2017-02-11T10:50:20.111Z,925.09
2017-02-11T10:51:33.215Z,925.15
2017-02-11T10:52:46.869Z,925.19
2017-02-11T10:54:00.550Z,925.22
2017-02-11T10:55:13.638Z,925.17
2017-02-11T10:56:26.111Z,925.25
2017-02-11T10:57:39.179Z,925.24
2017-02-11T10:58:52.862Z,925.27
2017-02-11T11:00:06.567Z,925.28
2017-02-11T11:01:19.056Z,925.28
2017-02-11T11:02:32.743Z,925.32
2017-02-11T11:03:46.446Z,925.29
2017-02-11T11:05:00.118Z,925.25
2017-02-11T11:06:13.796Z,925.25
2017-02-11T11:07:27.493Z,925.22
2017-02-11T11:08:41.247Z,925.21
2017-02-11T11:09:54.935Z,925.21
2017-02-11T11:11:08.025Z,925.21
2017-02-11T11:12:21.725Z,925.23
2017-02-11T11:13:35.429Z,925.19
2017-02-11T11:14:48.509Z,925.18
2017-02-11T11:16:02.182Z,925.15
2017-02-11T11:17:15.932Z,925.18
2017-02-11T11:18:29.003Z,925.17
2017-02-11T11:19:42.726Z,925.18
2017-02-11T11:20:56.403Z,925.21
2017-02-11T11:22:10.089Z,925.2
2017-02-11T11:23:23.825Z,925.26
2017-02-11T11:24:37.528Z,925.24
2017-02-11T11:25:51.201Z,925.19
2017-02-11T11:27:04.861Z,925.25
2017-02-11T11:28:18.633Z,925.24
2017-02-11T11:29:32.290Z,925.23
2017-02-11T11:30:45.983Z,925.25
2017-02-11T11:31:59.663Z,925.29
2017-02-11T11:33:13.381Z,925.25
2017-02-11T11:34:26.479Z,925.28
2017-02-11T11:35:40.207Z,925.28
2017-02-11T11:36:53.905Z,925.29
2017-02-11T11:38:07.590Z,925.25
2017-02-11T11:39:21.362Z,925.21
2017-02-11T11:40:35.157Z,925.23
2017-02-11T11:41:48.909Z,925.19
2017-02-11T11:43:02.629Z,925.19
2017-02-11T11:44:15.111Z,925.13
2017-02-11T11:45:28.799Z,925.2
2017-02-11T11:46:42.500Z,925.16
2017-02-11T11:47:56.195Z,925.15
2017-02-11T11:49:09.885Z,925.17
2017-02-11T11:50:23.536Z,925.17
2017-02-11T11:51:36.633Z,925.13
2017-02-11T11:52:50.328Z,925.12
2017-02-11T11:54:03.413Z,925.07
2017-02-11T11:55:17.102Z,925.07
2017-02-11T11:56:30.244Z,925.04
2017-02-11T11:57:43.966Z,925.06
2017-02-11T11:58:57.645Z,925.02
2017-02-11T12:00:11.344Z,925
2017-02-11T12:01:25.044Z,925
2017-02-11T12:02:38.732Z,925.01
2017-02-11T12:03:52.441Z,924.98
2017-02-11T12:05:06.190Z,924.98
2017-02-11T12:06:19.851Z,924.94
2017-02-11T12:07:33.533Z,924.94
2017-02-11T12:08:47.195Z,924.88
2017-02-11T12:10:00.893Z,924.87
2017-02-11T12:11:14.572Z,924.89
2017-02-11T12:12:28.239Z,924.92
2017-02-11T12:13:41.294Z,924.89
2017-02-11T12:14:54.403Z,924.91
2017-02-11T12:16:08.096Z,924.89
2017-02-11T12:17:21.201Z,924.89
2017-02-11T12:18:34.330Z,924.86
2017-02-11T12:19:48.059Z,924.84
2017-02-11T12:21:01.754Z,924.8
2017-02-11T12:22:15.498Z,924.84
2017-02-11T12:23:28.590Z,924.8
2017-02-11T12:24:42.324Z,924.82
2017-02-11T12:25:56.050Z,924.8
2017-02-11T12:27:09.707Z,924.77
2017-02-11T12:28:23.427Z,924.78
2017-02-11T12:29:37.120Z,924.8
2017-02-11T12:30:50.864Z,924.79
2017-02-11T12:32:04.576Z,924.8
2017-02-11T12:33:17.078Z,924.79
2017-02-11T12:34:30.248Z,924.76
2017-02-11T12:35:43.955Z,924.74
2017-02-11T12:36:57.633Z,924.68
2017-02-11T12:38:10.704Z,924.72
2017-02-11T12:39:23.793Z,924.7
2017-02-11T12:40:37.495Z,924.77
2017-02-11T12:41:51.194Z,924.74
2017-02-11T12:43:04.292Z,924.74
2017-02-11T12:44:17.970Z,924.73
2017-02-11T12:45:31.654Z,924.72
2017-02-11T12:46:45.311Z,924.77
2017-02-11T12:47:58.976Z,924.74
2017-02-11T12:49:12.052Z,924.67
2017-02-11T12:50:25.739Z,924.7
2017-02-11T12:51:39.485Z,924.71
2017-02-11T12:52:53.223Z,924.7
2017-02-11T12:54:06.928Z,924.71
2017-02-11T12:55:19.993Z,924.68
2017-02-11T12:56:33.734Z,924.72
2017-02-11T12:57:47.459Z,924.64
2017-02-11T12:59:01.180Z,924.67
2017-02-11T13:00:14.932Z,924.63
2017-02-11T13:01:28.603Z,924.6
2017-02-11T13:02:42.379Z,924.63
2017-02-11T13:03:56.088Z,924.6
2017-02-11T13:05:09.810Z,924.63
2017-02-11T13:06:23.480Z,924.64
2017-02-11T13:07:36.590Z,924.62
2017-02-11T13:08:50.322Z,924.64
2017-02-11T13:10:04.023Z,924.62
2017-02-11T13:11:17.716Z,924.6
2017-02-11T13:12:31.398Z,924.6
2017-02-11T13:13:45.100Z,924.6
2017-02-11T13:14:58.156Z,924.6
2017-02-11T13:16:11.852Z,924.62
2017-02-11T13:17:25.569Z,924.59
2017-02-11T13:18:38.669Z,924.62
2017-02-11T13:19:51.736Z,924.64
2017-02-11T13:21:05.430Z,924.57
2017-02-11T13:22:18.595Z,924.56
2017-02-11T13:23:31.702Z,924.54
2017-02-11T13:24:45.362Z,924.54
2017-02-11T13:25:59.042Z,924.58
2017-02-11T13:27:12.138Z,924.52
2017-02-11T13:28:25.853Z,924.5
2017-02-11T13:29:39.023Z,924.5
2017-02-11T13:30:52.704Z,924.43
2017-02-11T13:32:06.390Z,924.49
2017-02-11T13:33:19.502Z,924.5
2017-02-11T13:34:32.588Z,924.5
2017-02-11T13:35:46.285Z,924.48
2017-02-11T13:36:59.946Z,924.49
2017-02-11T13:38:13.632Z,924.49
2017-02-11T13:39:27.331Z,924.47
2017-02-11T13:40:40.446Z,924.47
2017-02-11T13:41:54.160Z,924.38
2017-02-11T13:43:07.862Z,924.35
2017-02-11T13:44:20.970Z,924.38
2017-02-11T13:45:34.779Z,924.37
2017-02-11T13:46:48.502Z,924.38
2017-02-11T13:48:02.208Z,924.36
2017-02-11T13:49:15.919Z,924.36
2017-02-11T13:50:29.597Z,924.32
2017-02-11T13:51:42.697Z,924.27
2017-02-11T13:52:56.387Z,924.25
2017-02-11T13:54:10.099Z,924.25
2017-02-11T13:55:23.837Z,924.2
2017-02-11T13:56:36.932Z,924.18
2017-02-11T13:57:50.650Z,924.23
2017-02-11T13:59:04.393Z,924.13
2017-02-11T14:00:18.063Z,924.13
2017-02-11T14:01:31.727Z,924.07
2017-02-11T14:02:45.425Z,924.11
2017-02-11T14:03:59.076Z,923.99
2017-02-11T14:05:13.239Z,924.04
2017-02-11T14:06:26.388Z,923.99
2017-02-11T14:07:39.517Z,924.04
2017-02-11T14:08:52.633Z,924.08
2017-02-11T14:10:06.343Z,924.03
2017-02-11T14:11:19.429Z,924.04
2017-02-11T14:12:33.138Z,924.05
2017-02-11T14:13:46.828Z,923.98
2017-02-11T14:14:59.933Z,923.97
2017-02-11T14:16:13.564Z,924.04
2017-02-11T14:17:27.266Z,923.97
2017-02-11T14:18:40.958Z,923.98
2017-02-11T14:19:54.116Z,923.98
2017-02-11T14:21:07.249Z,924.03
2017-02-11T14:22:20.956Z,923.95
2017-02-11T14:23:34.715Z,923.99
2017-02-11T14:24:48.464Z,923.97
2017-02-11T14:26:02.198Z,923.99
2017-02-11T14:27:15.299Z,923.98
2017-02-11T14:28:28.978Z,923.96
2017-02-11T14:29:42.679Z,923.95
2017-02-11T14:30:56.366Z,923.94
2017-02-11T14:32:10.036Z,923.92
2017-02-11T14:33:23.726Z,923.9
2017-02-11T14:34:37.420Z,923.9
2017-02-11T14:35:51.117Z,923.91
2017-02-11T14:37:04.776Z,923.9
2017-02-11T14:38:18.485Z,923.86
2017-02-11T14:39:32.158Z,923.87
2017-02-11T14:40:45.869Z,923.85
2017-02-11T14:41:59.586Z,923.88
2017-02-11T14:43:12.700Z,923.86
2017-02-11T14:44:26.375Z,923.81
2017-02-11T14:45:39.467Z,923.83
2017-02-11T14:46:53.141Z,923.82
2017-02-11T14:48:06.911Z,923.84
2017-02-11T14:49:20.624Z,923.74
2017-02-11T14:50:34.311Z,923.71
2017-02-11T14:51:48.027Z,923.72
2017-02-11T14:53:01.723Z,923.7
2017-02-11T14:54:14.228Z,923.73
2017-02-11T14:55:27.918Z,923.7
2017-02-11T14:56:41.676Z,923.69
2017-02-11T14:57:55.425Z,923.71
2017-02-11T14:59:08.526Z,923.75
2017-02-11T15:00:22.196Z,923.73
2017-02-11T15:01:35.900Z,923.68
2017-02-11T15:02:48.999Z,923.64
2017-02-11T15:04:02.749Z,923.67
2017-02-11T15:05:15.855Z,923.67
2017-02-11T15:06:29.531Z,923.65
2017-02-11T15:07:43.206Z,923.62
2017-02-11T15:08:56.911Z,923.6
2017-02-11T15:10:10.630Z,923.53
2017-02-11T15:11:24.292Z,923.6
2017-02-11T15:12:38.001Z,923.6
2017-02-11T15:13:51.698Z,923.64
2017-02-11T15:15:05.446Z,923.57
2017-02-11T15:16:18.553Z,923.5
2017-02-11T15:17:32.235Z,923.5
2017-02-11T15:18:45.918Z,923.49
2017-02-11T15:19:59.614Z,923.53
2017-02-11T15:21:12.723Z,923.52
2017-02-11T15:22:25.822Z,923.54
2017-02-11T15:23:39.496Z,923.51
2017-02-11T15:24:52.610Z,923.42
2017-02-11T15:26:06.426Z,923.42
2017-02-11T15:27:20.115Z,923.59
2017-02-11T15:28:33.793Z,923.58